createdAt,value
2018-12-27T00:00:34.837Z,16.30
2018-12-27T00:03:04.976Z,15.27
2018-12-27T00:05:35.276Z,16.27
2018-12-27T00:08:05.728Z,16.60
2018-12-27T00:10:35.726Z,16.13
2018-12-27T00:13:05.556Z,17.57
2018-12-27T00:15:35.776Z,18.90
2018-12-27T00:18:05.464Z,15.50
2018-12-27T00:20:35.706Z,16.00
2018-12-27T00:23:05.716Z,17.97
2018-12-27T00:25:35.639Z,15.07
2018-12-27T00:28:05.637Z,17.10
2018-12-27T00:30:35.656Z,17.30
2018-12-27T00:33:05.666Z,18.33
2018-12-27T00:35:35.576Z,17.03
2018-12-27T00:38:05.698Z,18.87
2018-12-27T00:40:35.936Z,17.07
2018-12-27T00:43:06.057Z,18.13
2018-12-27T00:45:36.376Z,19.37
2018-12-27T00:48:06.397Z,17.83
2018-12-27T00:50:36.396Z,17.13
2018-12-27T00:53:06.837Z,17.33
2018-12-27T00:55:36.857Z,20.37
2018-12-27T00:58:07.077Z,17.80
2018-12-27T01:00:37.077Z,18.23
2018-12-27T01:03:11.149Z,19.70
2018-12-27T01:05:38.445Z,19.10
2018-12-27T01:08:08.467Z,16.70
2018-12-27T01:10:38.674Z,18.60
2018-12-27T01:13:08.707Z,18.80
2018-12-27T01:15:38.715Z,17.57
2018-12-27T01:18:09.073Z,17.57
2018-12-27T01:20:38.745Z,20.27
2018-12-27T01:23:08.752Z,20.07
2018-12-27T01:25:38.975Z,20.07
2018-12-27T01:28:09.102Z,20.17
2018-12-27T01:30:39.236Z,19.63
2018-12-27T01:33:09.439Z,20.40
2018-12-27T01:35:39.775Z,18.37
2018-12-27T01:38:10.716Z,19.87
2018-12-27T01:40:40.924Z,18.53
2018-12-27T01:43:11.246Z,18.70
2018-12-27T01:45:41.266Z,19.30
2018-12-27T01:48:11.296Z,21.13
2018-12-27T01:50:41.418Z,19.57
2018-12-27T01:53:11.417Z,20.60
2018-12-27T01:55:41.326Z,22.33
2018-12-27T01:58:11.344Z,18.73
2018-12-27T02:00:41.464Z,22.63
2018-12-27T02:03:11.687Z,26.03
2018-12-27T02:05:41.695Z,22.43
2018-12-27T02:08:11.835Z,18.87
2018-12-27T02:10:42.064Z,20.87
2018-12-27T02:13:11.955Z,19.87
2018-12-27T02:15:42.194Z,20.80
2018-12-27T02:18:12.296Z,22.13
2018-12-27T02:20:42.406Z,22.23
2018-12-27T02:23:12.424Z,22.07
2018-12-27T02:25:42.754Z,22.80
2018-12-27T02:28:12.676Z,22.40
2018-12-27T02:30:42.695Z,22.80
2018-12-27T02:33:12.806Z,21.90
2018-12-27T02:35:42.716Z,22.37
2018-12-27T02:38:12.532Z,21.70
2018-12-27T02:40:42.643Z,23.37
2018-12-27T02:43:12.459Z,24.57
2018-12-27T02:45:42.676Z,22.57
2018-12-27T02:48:12.918Z,24.77
2018-12-27T02:50:43.055Z,21.83
2018-12-27T02:53:13.354Z,21.70
2018-12-27T02:55:43.475Z,21.63
2018-12-27T02:58:13.376Z,22.70
2018-12-27T03:00:43.828Z,22.77
2018-12-27T03:03:13.743Z,21.37
2018-12-27T03:05:43.437Z,23.30
2018-12-27T03:08:13.455Z,24.13
2018-12-27T03:10:43.775Z,19.73
2018-12-27T03:13:13.799Z,20.03
2018-12-27T03:15:44.106Z,18.33
2018-12-27T03:18:14.735Z,20.20
2018-12-27T03:20:44.647Z,17.67
2018-12-27T03:23:14.479Z,19.30
2018-12-27T03:25:44.781Z,18.27
2018-12-27T03:28:14.814Z,22.90
2018-12-27T03:30:44.844Z,20.60
2018-12-27T03:33:14.857Z,21.10
2018-12-27T03:35:45.061Z,23.10
2018-12-27T03:38:15.065Z,23.20
2018-12-27T03:40:44.986Z,21.10
2018-12-27T03:43:15.116Z,22.67
2018-12-27T03:45:45.228Z,26.53
2018-12-27T03:48:15.647Z,21.87
2018-12-27T03:50:45.457Z,21.30
2018-12-27T03:53:15.376Z,23.13
2018-12-27T03:55:45.285Z,21.57
2018-12-27T03:58:15.215Z,20.60
2018-12-27T04:00:45.530Z,23.30
2018-12-27T04:03:15.457Z,22.50
2018-12-27T04:05:45.147Z,22.80
2018-12-27T04:08:15.576Z,21.97
2018-12-27T04:10:45.488Z,21.87
2018-12-27T04:13:15.605Z,21.90
2018-12-27T04:15:45.836Z,18.63
2018-12-27T04:18:15.646Z,19.97
2018-12-27T04:20:45.763Z,18.60
2018-12-27T04:23:15.875Z,18.37
2018-12-27T04:25:46.077Z,19.77
2018-12-27T04:28:16.335Z,18.73
2018-12-27T04:30:46.258Z,20.97
2018-12-27T04:33:17.755Z,18.10
2018-12-27T04:35:49.357Z,18.90
2018-12-27T04:38:19.355Z,18.17
2018-12-27T04:40:49.062Z,18.37
2018-12-27T04:43:19.083Z,19.13
2018-12-27T04:45:49.314Z,19.03
2018-12-27T04:48:19.435Z,18.57
2018-12-27T04:50:49.455Z,20.50
2018-12-27T04:53:19.055Z,21.57
2018-12-27T04:55:49.177Z,19.03
2018-12-27T04:58:22.775Z,19.53
2018-12-27T05:00:52.795Z,17.77
2018-12-27T05:03:22.816Z,18.40
2018-12-27T05:05:52.815Z,18.60
2018-12-27T05:08:22.627Z,17.67
2018-12-27T05:10:52.555Z,17.70
2018-12-27T05:13:22.447Z,18.80
2018-12-27T05:15:52.777Z,16.93
2018-12-27T05:18:23.018Z,18.43
2018-12-27T05:20:52.707Z,17.17
2018-12-27T05:23:22.837Z,23.57
2018-12-27T05:25:52.757Z,18.70
2018-12-27T05:28:23.178Z,18.20
2018-12-27T05:30:53.353Z,17.70
2018-12-27T05:33:23.416Z,17.70
2018-12-27T05:35:53.627Z,19.63
2018-12-27T05:38:23.637Z,17.03
2018-12-27T05:40:53.658Z,14.80
2018-12-27T05:43:23.575Z,17.13
2018-12-27T05:45:53.796Z,15.73
2018-12-27T05:48:24.057Z,16.13
2018-12-27T05:50:53.834Z,17.03
2018-12-27T05:53:23.434Z,17.63
2018-12-27T05:55:53.456Z,19.30
2018-12-27T05:58:23.275Z,17.57
2018-12-27T06:00:52.767Z,20.87
2018-12-27T06:03:23.296Z,16.83
2018-12-27T06:05:53.416Z,17.40
2018-12-27T06:08:23.235Z,19.47
2018-12-27T06:10:53.359Z,17.57
2018-12-27T06:13:23.076Z,18.87
2018-12-27T06:15:53.375Z,22.03
2018-12-27T06:18:23.507Z,22.37
2018-12-27T06:20:53.426Z,25.43
2018-12-27T06:23:23.635Z,23.50
2018-12-27T06:25:53.647Z,24.50
2018-12-27T06:28:23.455Z,26.13
2018-12-27T06:30:54.294Z,23.13
2018-12-27T06:33:24.839Z,25.73
2018-12-27T06:35:54.847Z,23.47
2018-12-27T06:38:24.967Z,22.57
2018-12-27T06:40:54.875Z,21.03
2018-12-27T06:43:25.395Z,20.37
2018-12-27T06:45:55.515Z,19.00
2018-12-27T06:48:28.616Z,21.80
2018-12-27T06:50:59.656Z,20.40
2018-12-27T06:53:29.876Z,22.40
2018-12-27T06:56:01.057Z,23.83
2018-12-27T06:58:37.695Z,22.43
2018-12-27T07:01:05.975Z,22.40
2018-12-27T07:03:36.921Z,21.77
2018-12-27T07:06:07.235Z,19.87
2018-12-27T07:08:43.587Z,20.33
2018-12-27T07:11:23.935Z,22.47
2018-12-27T07:14:15.780Z,19.50
2018-12-27T07:16:49.677Z,25.17
2018-12-27T07:19:25.435Z,22.03
2018-12-27T07:21:58.215Z,21.80
2018-12-27T07:24:32.439Z,22.23
2018-12-27T07:27:07.056Z,22.87
2018-12-27T07:29:42.195Z,20.53
2018-12-27T07:32:17.835Z,23.23
2018-12-27T07:34:56.616Z,21.13
2018-12-27T07:37:30.160Z,22.00
2018-12-27T07:40:05.597Z,22.37
2018-12-27T07:42:35.720Z,26.07
2018-12-27T07:45:05.902Z,28.23
2018-12-27T07:47:36.785Z,25.90
2018-12-27T07:50:08.335Z,24.30
2018-12-27T07:52:38.756Z,22.93
2018-12-27T07:55:09.188Z,22.97
2018-12-27T07:57:39.316Z,17.33
2018-12-27T08:00:10.460Z,15.93
2018-12-27T08:02:40.996Z,15.80
2018-12-27T08:05:14.889Z,15.87
2018-12-27T08:07:46.643Z,16.40
2018-12-27T08:10:18.503Z,17.40
2018-12-27T08:12:56.215Z,17.50
2018-12-27T08:15:28.779Z,17.07
2018-12-27T08:18:03.295Z,16.20
2018-12-27T08:20:35.475Z,17.10
2018-12-27T08:23:06.515Z,14.33
2018-12-27T08:25:36.837Z,14.30
2018-12-27T08:28:07.675Z,14.50
2018-12-27T08:30:38.443Z,15.70
2018-12-27T08:33:08.723Z,15.57
2018-12-27T08:35:39.243Z,14.73
2018-12-27T08:38:09.915Z,13.73
2018-12-27T08:40:40.203Z,13.70
2018-12-27T08:43:11.477Z,12.63
2018-12-27T08:45:41.803Z,11.73
2018-12-27T08:48:12.206Z,13.33
2018-12-27T08:50:42.956Z,14.30
2018-12-27T08:53:13.275Z,12.70
2018-12-27T08:55:43.595Z,13.80
2018-12-27T08:58:13.837Z,14.20
2018-12-27T09:00:44.757Z,13.33
2018-12-27T09:03:15.364Z,13.40
2018-12-27T09:05:48.676Z,15.27
2018-12-27T09:08:18.891Z,16.57
2018-12-27T09:10:49.323Z,19.63
2018-12-27T09:13:20.275Z,19.43
2018-12-27T09:15:50.795Z,14.83
2018-12-27T09:18:22.588Z,15.47
2018-12-27T09:20:53.188Z,14.53
2018-12-27T09:23:25.675Z,13.13
2018-12-27T09:25:56.364Z,13.47
2018-12-27T09:28:27.206Z,14.57
2018-12-27T09:30:57.956Z,15.03
2018-12-27T09:33:28.474Z,17.57
2018-12-27T09:35:58.834Z,19.70
2018-12-27T09:38:29.754Z,17.37
2018-12-27T09:41:00.162Z,19.03
2018-12-27T09:43:30.885Z,15.20
2018-12-27T09:46:01.074Z,19.83
2018-12-27T09:48:31.355Z,15.07
2018-12-27T09:51:01.442Z,18.20
2018-12-27T09:53:31.474Z,16.40
2018-12-27T09:56:01.714Z,21.07
2018-12-27T09:58:32.531Z,19.53
2018-12-27T10:01:03.462Z,20.30
2018-12-27T10:03:34.203Z,16.03
2018-12-27T10:06:04.737Z,17.30
2018-12-27T10:08:34.836Z,18.70
2018-12-27T10:11:04.963Z,16.73
2018-12-27T10:13:37.675Z,17.10
2018-12-27T10:16:09.835Z,17.33
2018-12-27T10:18:40.965Z,14.23
2018-12-27T10:21:11.395Z,13.03
2018-12-27T10:23:42.003Z,14.37
2018-12-27T10:26:13.395Z,14.93
2018-12-27T10:28:44.499Z,13.93
2018-12-27T10:31:14.516Z,14.77
2018-12-27T10:33:45.443Z,16.03
2018-12-27T10:36:15.675Z,14.13
2018-12-27T10:38:45.891Z,14.67
2018-12-27T10:41:16.082Z,14.80
2018-12-27T10:43:46.475Z,14.70
2018-12-27T10:46:17.475Z,13.97
2018-12-27T10:48:48.827Z,13.53
2018-12-27T10:51:19.364Z,13.50
2018-12-27T10:53:49.483Z,13.90
2018-12-27T10:56:20.003Z,17.00
2018-12-27T10:58:50.323Z,16.60
2018-12-27T11:01:24.347Z,16.67
2018-12-27T11:03:55.291Z,14.97
2018-12-27T11:06:25.595Z,17.57
2018-12-27T11:08:55.403Z,13.93
2018-12-27T11:11:26.355Z,16.80
2018-12-27T11:13:57.287Z,14.60
2018-12-27T11:16:27.524Z,13.07
2018-12-27T11:18:58.253Z,14.03
2018-12-27T11:21:28.764Z,10.03
2018-12-27T11:23:59.405Z,11.57
2018-12-27T11:26:29.723Z,12.77
2018-12-27T11:28:59.843Z,10.83
2018-12-27T11:31:30.163Z,13.30
2018-12-27T11:33:59.875Z,11.80
2018-12-27T11:36:34.003Z,10.07
2018-12-27T11:39:05.159Z,10.63
2018-12-27T11:41:36.580Z,11.27
2018-12-27T11:44:06.410Z,9.93
2018-12-27T11:46:36.835Z,10.87
2018-12-27T11:49:07.084Z,11.77
2018-12-27T11:51:37.277Z,10.70
2018-12-27T11:54:07.803Z,12.63
2018-12-27T11:56:39.066Z,10.83
2018-12-27T11:59:09.363Z,10.87
2018-12-27T12:01:40.723Z,11.33
2018-12-27T12:04:10.620Z,13.40
2018-12-27T12:06:40.755Z,16.80
2018-12-27T12:09:11.389Z,14.93
2018-12-27T12:11:42.555Z,16.37
2018-12-27T12:14:12.755Z,19.10
2018-12-27T12:16:43.483Z,16.07
2018-12-27T12:19:14.835Z,10.53
2018-12-27T12:21:45.675Z,12.17
2018-12-27T12:24:15.883Z,11.10
2018-12-27T12:26:46.227Z,11.90
2018-12-27T12:29:16.515Z,12.47
2018-12-27T12:31:47.275Z,11.20
2018-12-27T12:34:17.915Z,9.57
2018-12-27T12:36:48.757Z,10.33
2018-12-27T12:39:19.763Z,10.80
2018-12-27T12:41:50.635Z,9.10
2018-12-27T12:44:21.876Z,9.43
2018-12-27T12:46:53.170Z,10.50
2018-12-27T12:49:24.843Z,9.00
2018-12-27T12:51:56.315Z,10.40
2018-12-27T12:54:26.927Z,9.20
2018-12-27T12:56:57.469Z,9.67
2018-12-27T12:59:28.196Z,10.43
2018-12-27T13:01:58.838Z,10.17
2018-12-27T13:04:29.676Z,10.17
2018-12-27T13:07:00.316Z,8.33
2018-12-27T13:09:31.237Z,8.50
2018-12-27T13:12:02.795Z,7.47
2018-12-27T13:14:33.755Z,9.17
2018-12-27T13:17:04.675Z,9.87
2018-12-27T13:19:35.597Z,8.77
2018-12-27T13:22:06.755Z,10.27
2018-12-27T13:24:37.476Z,10.33
2018-12-27T13:27:08.956Z,8.43
2018-12-27T13:29:39.357Z,9.87
2018-12-27T13:32:10.915Z,8.70
2018-12-27T13:34:42.076Z,8.17
2018-12-27T13:37:12.796Z,7.63
2018-12-27T13:39:43.435Z,7.50
2018-12-27T13:42:17.955Z,7.17
2018-12-27T13:44:48.678Z,7.13
2018-12-27T13:47:19.715Z,7.70
2018-12-27T13:49:50.435Z,11.40
2018-12-27T13:52:20.444Z,8.03
2018-12-27T13:54:51.001Z,9.17
2018-12-27T13:57:21.435Z,9.17
2018-12-27T13:59:51.924Z,9.77
2018-12-27T14:02:22.277Z,10.63
2018-12-27T14:04:53.436Z,11.20
2018-12-27T14:07:24.996Z,11.80
2018-12-27T14:09:55.507Z,13.07
2018-12-27T14:12:26.940Z,12.80
2018-12-27T14:14:57.396Z,12.33
2018-12-27T14:17:27.996Z,12.93
2018-12-27T14:19:58.924Z,11.70
2018-12-27T14:22:29.399Z,12.40
2018-12-27T14:24:59.804Z,9.67
2018-12-27T14:27:30.436Z,10.30
2018-12-27T14:30:02.916Z,11.30
2018-12-27T14:32:34.364Z,12.97
2018-12-27T14:35:04.883Z,21.10
2018-12-27T14:37:35.395Z,14.27
2018-12-27T14:40:05.836Z,15.10
2018-12-27T14:42:36.547Z,15.60
2018-12-27T14:45:08.236Z,13.83
2018-12-27T14:47:39.555Z,15.27
2018-12-27T14:50:10.285Z,16.33
2018-12-27T14:52:41.107Z,19.43
2018-12-27T14:55:12.075Z,19.23
2018-12-27T14:57:42.715Z,15.90
2018-12-27T15:00:13.875Z,15.07
2018-12-27T15:02:44.076Z,14.60
2018-12-27T15:05:14.915Z,13.00
2018-12-27T15:07:45.435Z,13.23
2018-12-27T15:10:16.963Z,14.43
2018-12-27T15:12:49.443Z,15.07
2018-12-27T15:15:30.556Z,13.30
2018-12-27T15:18:01.075Z,14.17
2018-12-27T15:20:32.831Z,15.43
2018-12-27T15:23:04.361Z,13.67
2018-12-27T15:25:35.832Z,20.50
2018-12-27T15:28:06.439Z,15.20
2018-12-27T15:30:36.769Z,15.03
2018-12-27T15:33:07.920Z,13.57
2018-12-27T15:35:38.439Z,15.83
2018-12-27T15:38:09.480Z,14.70
2018-12-27T15:40:39.599Z,16.37
2018-12-27T15:43:09.832Z,15.53
2018-12-27T15:45:40.760Z,17.20
2018-12-27T15:48:11.791Z,16.20
2018-12-27T15:50:42.929Z,16.43
2018-12-27T15:53:13.791Z,17.03
2018-12-27T15:55:43.999Z,17.70
2018-12-27T15:58:14.839Z,17.63
2018-12-27T16:00:45.272Z,17.30
2018-12-27T16:03:16.634Z,17.83
2018-12-27T16:05:46.840Z,18.73
2018-12-27T16:08:17.992Z,18.40
2018-12-27T16:10:48.399Z,17.23
2018-12-27T16:13:19.439Z,17.27
2018-12-27T16:15:50.192Z,17.83
2018-12-27T16:18:20.800Z,15.73
2018-12-27T16:20:51.439Z,15.60
2018-12-27T16:23:23.000Z,16.10
2018-12-27T16:25:53.433Z,17.50
2018-12-27T16:28:24.129Z,16.73
2018-12-27T16:30:54.792Z,17.10
2018-12-27T16:33:25.402Z,18.37
2018-12-27T16:35:55.840Z,18.43
2018-12-27T16:38:26.472Z,20.23
2018-12-27T16:40:56.483Z,16.83
2018-12-27T16:43:26.800Z,18.07
2018-12-27T16:45:57.440Z,19.07
2018-12-27T16:48:27.952Z,17.60
2018-12-27T16:50:58.401Z,19.77
2018-12-27T16:53:30.272Z,18.53
2018-12-27T16:56:00.793Z,17.80
2018-12-27T16:58:31.207Z,18.90
2018-12-27T17:01:01.929Z,20.80
2018-12-27T17:03:36.041Z,18.30
2018-12-27T17:06:06.588Z,19.53
2018-12-27T17:08:36.800Z,21.37
2018-12-27T17:11:19.504Z,17.93
2018-12-27T17:14:17.881Z,19.17
2018-12-27T17:17:12.988Z,20.27
2018-12-27T17:23:02.401Z,18.07
2018-12-27T17:25:33.010Z,22.63
2018-12-27T17:28:03.080Z,21.83
2018-12-27T17:30:34.193Z,22.00
2018-12-27T17:33:12.681Z,18.83
2018-12-27T17:35:42.832Z,18.97
2018-12-27T17:38:13.081Z,18.23
2018-12-27T17:40:43.800Z,16.40
2018-12-27T17:43:14.514Z,16.33
2018-12-27T17:45:45.345Z,14.83
2018-12-27T17:48:18.411Z,19.43
2018-12-27T17:50:48.850Z,15.73
2018-12-27T17:53:19.888Z,19.30
2018-12-27T17:55:50.065Z,16.20
2018-12-27T17:58:20.531Z,15.30
2018-12-27T18:00:50.750Z,17.77
2018-12-27T18:03:21.071Z,19.70
2018-12-27T18:05:51.304Z,19.47
2018-12-27T18:08:24.270Z,19.87
2018-12-27T18:10:55.841Z,18.20
2018-12-27T18:13:37.441Z,17.13
2018-12-27T18:16:10.320Z,17.10
2018-12-27T18:18:46.680Z,16.67
2018-12-27T18:21:17.730Z,17.47
2018-12-27T18:29:27.832Z,18.67
2018-12-27T18:31:58.864Z,20.00
2018-12-27T18:34:30.921Z,16.27
2018-12-27T18:37:01.881Z,15.30
2018-12-27T18:39:32.481Z,16.33
2018-12-27T18:42:03.432Z,17.00
2018-12-27T18:44:34.473Z,16.23
2018-12-27T18:47:07.962Z,17.25
2018-12-27T18:49:43.005Z,16.03
2018-12-27T18:52:14.241Z,16.10
2018-12-27T18:54:45.392Z,17.60
2018-12-27T18:57:16.840Z,16.13
2018-12-27T18:59:47.992Z,15.63
2018-12-27T19:02:18.599Z,16.10
2018-12-27T19:04:49.960Z,17.57
2018-12-27T19:07:20.480Z,15.37
2018-12-27T19:09:55.000Z,16.30
2018-12-27T19:12:45.512Z,15.20
2018-12-27T19:15:37.439Z,15.93
2018-12-27T19:18:26.841Z,20.03
2018-12-27T19:21:18.346Z,18.23
2018-12-27T19:23:48.796Z,17.83
2018-12-27T19:27:21.277Z,17.50
2018-12-27T19:28:54.710Z,18.53
2018-12-27T19:31:25.871Z,16.80
2018-12-27T19:40:08.721Z,16.40
2018-12-27T19:45:45.510Z,16.37
2018-12-27T19:48:28.156Z,16.83
2018-12-27T19:51:01.854Z,16.63
2018-12-27T19:53:45.762Z,18.63
2018-12-27T19:56:19.520Z,16.57
2018-12-27T19:58:53.604Z,17.80
2018-12-27T20:01:26.112Z,16.43
2018-12-27T20:04:08.600Z,15.87
2018-12-27T20:06:54.289Z,18.07
2018-12-27T20:09:35.280Z,16.17
2018-12-27T20:12:11.280Z,17.57
2018-12-27T20:14:47.752Z,18.43
2018-12-27T20:17:20.441Z,17.37
2018-12-27T20:19:58.431Z,17.60
2018-12-27T20:22:32.106Z,16.33
2018-12-27T20:25:04.324Z,17.63
2018-12-27T20:27:35.240Z,18.13
2018-12-27T20:30:06.784Z,17.50
2018-12-27T20:32:42.830Z,16.33
2018-12-27T20:35:13.602Z,18.17
2018-12-27T20:37:52.897Z,16.97
2018-12-27T20:40:23.760Z,16.87
2018-12-27T20:42:54.390Z,18.23
2018-12-27T20:45:24.721Z,16.67
2018-12-27T20:47:54.920Z,16.47
2018-12-27T20:50:25.753Z,16.93
2018-12-27T20:53:16.784Z,16.63
2018-12-27T20:55:49.674Z,16.90
2018-12-27T20:58:21.810Z,19.70
2018-12-27T21:00:54.723Z,16.63
2018-12-27T21:03:25.960Z,16.90
2018-12-27T21:05:57.389Z,18.13
2018-12-27T21:08:30.088Z,19.17
2018-12-27T21:11:03.690Z,17.33
2018-12-27T21:13:38.910Z,17.20
2018-12-27T21:16:15.312Z,18.67
2018-12-27T21:18:52.993Z,19.83
2018-12-27T21:21:24.921Z,19.67
2018-12-27T21:23:56.682Z,18.17
2018-12-27T21:26:28.872Z,19.30
2018-12-27T21:29:01.330Z,17.23
2018-12-27T21:31:32.687Z,18.20
2018-12-27T21:34:06.393Z,17.10
2018-12-27T21:36:37.951Z,18.10
2018-12-27T21:39:13.925Z,19.70
2018-12-27T21:41:45.770Z,17.67
2018-12-27T21:44:16.800Z,17.17
2018-12-27T21:46:48.074Z,16.07
2018-12-27T21:49:18.802Z,17.17
2018-12-27T21:51:51.040Z,16.50
2018-12-27T21:54:33.906Z,15.83
2018-12-27T21:57:04.705Z,14.37
2018-12-27T21:59:35.761Z,15.77
2018-12-27T22:02:07.395Z,16.93
2018-12-27T22:04:40.292Z,15.57
2018-12-27T22:07:14.394Z,14.97
2018-12-27T22:09:52.276Z,15.67
2018-12-27T22:12:24.761Z,16.17
2018-12-27T22:14:57.872Z,16.27
2018-12-27T22:17:32.715Z,16.87
2018-12-27T22:20:04.840Z,15.33
2018-12-27T22:22:38.962Z,17.27
2018-12-27T22:25:10.820Z,17.43
2018-12-27T22:27:42.300Z,17.17
2018-12-27T22:30:22.872Z,18.40
2018-12-27T22:32:53.792Z,18.80
2018-12-27T22:35:24.325Z,17.80
2018-12-27T22:37:55.760Z,17.97
2018-12-27T22:40:26.812Z,18.67
2018-12-27T22:42:57.852Z,16.10
2018-12-27T22:45:28.482Z,17.50
2018-12-27T22:48:04.840Z,17.37
2018-12-27T22:50:35.360Z,17.10
2018-12-27T22:53:06.832Z,16.03
2018-12-27T22:55:37.541Z,17.60
2018-12-27T22:58:13.402Z,17.07
2018-12-27T23:00:50.683Z,16.93
2018-12-27T23:03:31.446Z,16.37
2018-12-27T23:06:05.063Z,17.73
2018-12-27T23:08:42.810Z,17.07
2018-12-27T23:11:18.409Z,18.37
2018-12-27T23:14:15.770Z,17.30
2018-12-27T23:16:52.949Z,16.73
2018-12-27T23:22:25.059Z,18.83
2018-12-27T23:25:29.649Z,17.53
2018-12-27T23:28:27.028Z,17.40
2018-12-27T23:31:03.589Z,16.87
2018-12-27T23:37:22.098Z,19.27
2018-12-27T23:40:08.050Z,15.70
2018-12-27T23:42:58.630Z,16.47
2018-12-27T23:48:48.249Z,14.27
2018-12-27T23:51:23.991Z,13.80
2018-12-27T23:54:11.838Z,13.17
2018-12-27T23:56:56.691Z,10.90
2018-12-27T23:59:55.493Z,11.27
